sensor_id;sensor_type;location;lat;lon;timestamp;P1;durP1;ratioP1;P2;durP2;ratioP2
62574;SDS011;53112;45.602;11.904;2023-04-01T00:00:50;7.70;;;5.10;;
62574;SDS011;53112;45.602;11.904;2023-04-01T00:03:17;6.18;;;4.82;;
62574;SDS011;53112;45.602;11.904;2023-04-01T00:05:43;7.00;;;4.72;;
62574;SDS011;53112;45.602;11.904;2023-04-01T00:08:10;6.45;;;5.07;;
62574;SDS011;53112;45.602;11.904;2023-04-01T00:10:36;6.70;;;4.93;;
62574;SDS011;53112;45.602;11.904;2023-04-01T00:13:02;7.35;;;5.35;;
62574;SDS011;53112;45.602;11.904;2023-04-01T00:15:28;7.03;;;5.65;;
62574;SDS011;53112;45.602;11.904;2023-04-01T00:17:53;7.47;;;5.45;;
62574;SDS011;53112;45.602;11.904;2023-04-01T00:20:20;7.43;;;5.03;;
62574;SDS011;53112;45.602;11.904;2023-04-01T00:22:46;6.95;;;4.80;;
62574;SDS011;53112;45.602;11.904;2023-04-01T00:25:12;7.03;;;4.97;;
62574;SDS011;53112;45.602;11.904;2023-04-01T00:27:39;7.43;;;5.18;;
62574;SDS011;53112;45.602;11.904;2023-04-01T00:30:06;7.30;;;5.50;;
62574;SDS011;53112;45.602;11.904;2023-04-01T00:32:32;7.53;;;5.28;;
62574;SDS011;53112;45.602;11.904;2023-04-01T00:34:58;7.35;;;4.90;;
62574;SDS011;53112;45.602;11.904;2023-04-01T00:37:24;7.03;;;5.20;;
62574;SDS011;53112;45.602;11.904;2023-04-01T00:39:51;7.43;;;5.50;;
62574;SDS011;53112;45.602;11.904;2023-04-01T00:42:17;6.72;;;4.90;;
62574;SDS011;53112;45.602;11.904;2023-04-01T00:44:44;6.82;;;4.93;;
62574;SDS011;53112;45.602;11.904;2023-04-01T00:47:13;7.15;;;5.60;;
62574;SDS011;53112;45.602;11.904;2023-04-01T00:49:40;7.18;;;5.10;;
62574;SDS011;53112;45.602;11.904;2023-04-01T00:52:11;6.80;;;5.17;;
62574;SDS011;53112;45.602;11.904;2023-04-01T00:54:41;6.85;;;5.10;;
62574;SDS011;53112;45.602;11.904;2023-04-01T01:00:11;7.07;;;5.20;;
62574;SDS011;53112;45.602;11.904;2023-04-01T01:02:43;7.25;;;5.18;;
62574;SDS011;53112;45.602;11.904;2023-04-01T01:05:12;6.70;;;5.22;;
62574;SDS011;53112;45.602;11.904;2023-04-01T01:08:14;6.82;;;5.20;;
62574;SDS011;53112;45.602;11.904;2023-04-01T01:10:44;6.55;;;4.95;;
62574;SDS011;53112;45.602;11.904;2023-04-01T01:16:00;7.28;;;5.25;;
62574;SDS011;53112;45.602;11.904;2023-04-01T01:18:48;6.35;;;4.97;;
62574;SDS011;53112;45.602;11.904;2023-04-01T01:26:54;6.35;;;4.90;;
62574;SDS011;53112;45.602;11.904;2023-04-01T01:37:49;6.47;;;5.07;;
62574;SDS011;53112;45.602;11.904;2023-04-01T01:40:17;6.93;;;5.22;;
62574;SDS011;53112;45.602;11.904;2023-04-01T01:42:46;6.68;;;5.00;;
62574;SDS011;53112;45.602;11.904;2023-04-01T01:45:16;7.43;;;5.10;;
62574;SDS011;53112;45.602;11.904;2023-04-01T01:47:45;7.47;;;5.43;;
62574;SDS011;53112;45.602;11.904;2023-04-01T01:50:14;6.55;;;4.85;;
62574;SDS011;53112;45.602;11.904;2023-04-01T01:52:42;7.13;;;5.10;;
62574;SDS011;53112;45.602;11.904;2023-04-01T01:55:26;8.73;;;5.50;;
62574;SDS011;53112;45.602;11.904;2023-04-01T01:58:05;6.57;;;4.80;;
62574;SDS011;53112;45.602;11.904;2023-04-01T02:00:39;7.22;;;5.20;;
62574;SDS011;53112;45.602;11.904;2023-04-01T02:03:08;7.55;;;5.47;;
62574;SDS011;53112;45.602;11.904;2023-04-01T02:05:36;7.80;;;5.78;;
62574;SDS011;53112;45.602;11.904;2023-04-01T02:08:05;6.75;;;5.10;;
62574;SDS011;53112;45.602;11.904;2023-04-01T02:10:35;6.40;;;4.93;;
62574;SDS011;53112;45.602;11.904;2023-04-01T02:13:06;6.72;;;4.95;;
62574;SDS011;53112;45.602;11.904;2023-04-01T02:15:45;7.18;;;5.43;;
62574;SDS011;53112;45.602;11.904;2023-04-01T02:18:13;6.50;;;5.00;;
62574;SDS011;53112;45.602;11.904;2023-04-01T02:20:41;6.68;;;5.10;;
62574;SDS011;53112;45.602;11.904;2023-04-01T02:23:09;6.75;;;5.15;;
62574;SDS011;53112;45.602;11.904;2023-04-01T02:25:36;6.70;;;5.10;;
62574;SDS011;53112;45.602;11.904;2023-04-01T02:28:04;7.22;;;5.15;;
62574;SDS011;53112;45.602;11.904;2023-04-01T02:30:33;7.57;;;5.45;;
62574;SDS011;53112;45.602;11.904;2023-04-01T02:33:02;7.70;;;5.43;;
62574;SDS011;53112;45.602;11.904;2023-04-01T02:35:30;7.03;;;5.03;;
62574;SDS011;53112;45.602;11.904;2023-04-01T02:38:00;6.85;;;5.13;;
62574;SDS011;53112;45.602;11.904;2023-04-01T02:40:27;7.55;;;5.45;;
62574;SDS011;53112;45.602;11.904;2023-04-01T02:42:53;7.10;;;5.28;;
62574;SDS011;53112;45.602;11.904;2023-04-01T02:45:19;7.47;;;5.07;;
62574;SDS011;53112;45.602;11.904;2023-04-01T02:47:44;6.90;;;5.20;;
62574;SDS011;53112;45.602;11.904;2023-04-01T02:50:10;6.85;;;5.30;;
62574;SDS011;53112;45.602;11.904;2023-04-01T02:52:36;7.20;;;5.20;;
62574;SDS011;53112;45.602;11.904;2023-04-01T02:55:02;6.80;;;5.10;;
62574;SDS011;53112;45.602;11.904;2023-04-01T02:57:29;6.90;;;4.88;;
62574;SDS011;53112;45.602;11.904;2023-04-01T02:59:55;7.43;;;5.65;;
62574;SDS011;53112;45.602;11.904;2023-04-01T03:02:21;7.35;;;5.25;;
62574;SDS011;53112;45.602;11.904;2023-04-01T03:04:47;6.95;;;5.07;;
62574;SDS011;53112;45.602;11.904;2023-04-01T03:07:13;6.82;;;5.32;;
62574;SDS011;53112;45.602;11.904;2023-04-01T03:09:39;6.95;;;5.22;;
62574;SDS011;53112;45.602;11.904;2023-04-01T03:12:05;8.25;;;5.72;;
62574;SDS011;53112;45.602;11.904;2023-04-01T03:14:32;7.00;;;5.55;;
62574;SDS011;53112;45.602;11.904;2023-04-01T03:16:58;6.80;;;5.28;;
62574;SDS011;53112;45.602;11.904;2023-04-01T03:19:23;6.72;;;5.18;;
62574;SDS011;53112;45.602;11.904;2023-04-01T03:21:49;7.47;;;5.07;;
62574;SDS011;53112;45.602;11.904;2023-04-01T03:24:15;6.20;;;4.63;;
62574;SDS011;53112;45.602;11.904;2023-04-01T03:26:41;6.55;;;4.80;;
62574;SDS011;53112;45.602;11.904;2023-04-01T03:29:07;7.53;;;5.43;;
62574;SDS011;53112;45.602;11.904;2023-04-01T03:31:33;6.93;;;5.22;;
62574;SDS011;53112;45.602;11.904;2023-04-01T03:33:59;7.32;;;5.47;;
62574;SDS011;53112;45.602;11.904;2023-04-01T03:36:25;6.57;;;5.03;;
62574;SDS011;53112;45.602;11.904;2023-04-01T03:38:57;6.50;;;4.90;;
62574;SDS011;53112;45.602;11.904;2023-04-01T03:43:48;6.43;;;4.80;;
62574;SDS011;53112;45.602;11.904;2023-04-01T03:46:18;6.72;;;5.10;;
62574;SDS011;53112;45.602;11.904;2023-04-01T03:48:45;6.67;;;5.20;;
62574;SDS011;53112;45.602;11.904;2023-04-01T03:51:11;7.00;;;5.05;;
62574;SDS011;53112;45.602;11.904;2023-04-01T03:53:37;7.22;;;5.32;;
62574;SDS011;53112;45.602;11.904;2023-04-01T03:56:04;6.07;;;4.68;;
62574;SDS011;53112;45.602;11.904;2023-04-01T03:58:30;7.28;;;5.40;;
62574;SDS011;53112;45.602;11.904;2023-04-01T04:00:56;8.63;;;5.30;;
62574;SDS011;53112;45.602;11.904;2023-04-01T04:03:22;6.97;;;4.90;;
62574;SDS011;53112;45.602;11.904;2023-04-01T04:05:48;6.95;;;5.20;;
62574;SDS011;53112;45.602;11.904;2023-04-01T04:08:15;7.45;;;5.20;;
62574;SDS011;53112;45.602;11.904;2023-04-01T04:10:43;6.65;;;4.80;;
62574;SDS011;53112;45.602;11.904;2023-04-01T04:13:09;6.43;;;5.03;;
62574;SDS011;53112;45.602;11.904;2023-04-01T04:15:35;6.22;;;5.00;;
62574;SDS011;53112;45.602;11.904;2023-04-01T04:18:01;6.93;;;5.20;;
62574;SDS011;53112;45.602;11.904;2023-04-01T04:20:27;6.28;;;4.97;;
62574;SDS011;53112;45.602;11.904;2023-04-01T04:22:53;7.13;;;5.38;;
62574;SDS011;53112;45.602;11.904;2023-04-01T04:25:18;6.53;;;5.22;;
62574;SDS011;53112;45.602;11.904;2023-04-01T04:27:44;8.45;;;5.43;;
62574;SDS011;53112;45.602;11.904;2023-04-01T04:30:10;6.85;;;5.22;;
62574;SDS011;53112;45.602;11.904;2023-04-01T04:32:37;6.82;;;5.20;;
62574;SDS011;53112;45.602;11.904;2023-04-01T04:35:03;6.30;;;4.80;;
62574;SDS011;53112;45.602;11.904;2023-04-01T04:37:29;7.18;;;5.10;;
62574;SDS011;53112;45.602;11.904;2023-04-01T04:39:55;6.35;;;5.03;;
62574;SDS011;53112;45.602;11.904;2023-04-01T04:42:21;6.35;;;5.35;;
62574;SDS011;53112;45.602;11.904;2023-04-01T04:44:47;6.30;;;4.90;;
62574;SDS011;53112;45.602;11.904;2023-04-01T04:47:13;7.10;;;5.00;;
62574;SDS011;53112;45.602;11.904;2023-04-01T04:49:39;6.15;;;4.60;;
62574;SDS011;53112;45.602;11.904;2023-04-01T04:52:05;6.88;;;5.15;;
62574;SDS011;53112;45.602;11.904;2023-04-01T04:54:31;6.78;;;5.13;;
62574;SDS011;53112;45.602;11.904;2023-04-01T04:56:57;6.72;;;4.93;;
62574;SDS011;53112;45.602;11.904;2023-04-01T04:59:22;6.15;;;4.82;;
62574;SDS011;53112;45.602;11.904;2023-04-01T05:01:48;6.07;;;4.65;;
62574;SDS011;53112;45.602;11.904;2023-04-01T05:04:14;6.32;;;4.72;;
62574;SDS011;53112;45.602;11.904;2023-04-01T05:06:42;6.15;;;4.97;;
62574;SDS011;53112;45.602;11.904;2023-04-01T05:09:08;6.13;;;4.70;;
62574;SDS011;53112;45.602;11.904;2023-04-01T05:11:34;5.95;;;4.60;;
62574;SDS011;53112;45.602;11.904;2023-04-01T05:14:00;7.10;;;4.65;;
62574;SDS011;53112;45.602;11.904;2023-04-01T05:16:26;6.95;;;4.72;;
62574;SDS011;53112;45.602;11.904;2023-04-01T05:18:52;6.75;;;4.80;;
62574;SDS011;53112;45.602;11.904;2023-04-01T05:21:18;6.30;;;4.75;;
62574;SDS011;53112;45.602;11.904;2023-04-01T05:23:44;6.00;;;4.70;;
62574;SDS011;53112;45.602;11.904;2023-04-01T05:26:11;6.28;;;4.75;;
62574;SDS011;53112;45.602;11.904;2023-04-01T05:28:39;5.85;;;4.60;;
62574;SDS011;53112;45.602;11.904;2023-04-01T05:31:06;6.78;;;4.88;;
62574;SDS011;53112;45.602;11.904;2023-04-01T05:33:32;5.85;;;4.63;;
62574;SDS011;53112;45.602;11.904;2023-04-01T05:36:12;6.22;;;4.57;;
62574;SDS011;53112;45.602;11.904;2023-04-01T05:38:39;6.22;;;4.57;;
62574;SDS011;53112;45.602;11.904;2023-04-01T05:41:06;6.30;;;4.70;;
62574;SDS011;53112;45.602;11.904;2023-04-01T05:43:31;8.70;;;5.00;;
62574;SDS011;53112;45.602;11.904;2023-04-01T05:46:00;7.57;;;4.70;;
62574;SDS011;53112;45.602;11.904;2023-04-01T05:48:26;6.60;;;4.93;;
62574;SDS011;53112;45.602;11.904;2023-04-01T05:50:52;8.57;;;4.50;;
62574;SDS011;53112;45.602;11.904;2023-04-01T05:53:18;5.18;;;4.00;;
62574;SDS011;53112;45.602;11.904;2023-04-01T05:55:44;7.75;;;4.40;;
62574;SDS011;53112;45.602;11.904;2023-04-01T05:58:10;5.10;;;4.13;;
62574;SDS011;53112;45.602;11.904;2023-04-01T06:00:36;6.45;;;4.05;;
62574;SDS011;53112;45.602;11.904;2023-04-01T06:03:03;5.55;;;4.10;;
62574;SDS011;53112;45.602;11.904;2023-04-01T06:05:30;6.75;;;4.10;;
62574;SDS011;53112;45.602;11.904;2023-04-01T06:08:21;6.88;;;4.13;;
62574;SDS011;53112;45.602;11.904;2023-04-01T06:10:55;7.35;;;4.32;;
62574;SDS011;53112;45.602;11.904;2023-04-01T06:30:38;8.57;;;4.77;;
62574;SDS011;53112;45.602;11.904;2023-04-01T06:38:45;7.75;;;5.10;;
62574;SDS011;53112;45.602;11.904;2023-04-01T06:44:14;8.27;;;5.40;;
62574;SDS011;53112;45.602;11.904;2023-04-01T06:46:47;7.15;;;5.22;;
62574;SDS011;53112;45.602;11.904;2023-04-01T06:52:19;6.82;;;4.93;;
62574;SDS011;53112;45.602;11.904;2023-04-01T06:58:20;7.05;;;4.88;;
62574;SDS011;53112;45.602;11.904;2023-04-01T07:00:49;7.10;;;5.32;;
62574;SDS011;53112;45.602;11.904;2023-04-01T07:05:54;8.15;;;4.90;;
62574;SDS011;53112;45.602;11.904;2023-04-01T07:08:24;6.55;;;4.80;;
62574;SDS011;53112;45.602;11.904;2023-04-01T07:11:13;7.15;;;4.78;;
62574;SDS011;53112;45.602;11.904;2023-04-01T07:13:54;6.50;;;4.63;;
62574;SDS011;53112;45.602;11.904;2023-04-01T07:16:32;7.00;;;4.65;;
62574;SDS011;53112;45.602;11.904;2023-04-01T07:21:48;7.80;;;5.10;;
62574;SDS011;53112;45.602;11.904;2023-04-01T07:26:58;8.50;;;5.57;;
62574;SDS011;53112;45.602;11.904;2023-04-01T07:29:25;8.02;;;5.65;;
62574;SDS011;53112;45.602;11.904;2023-04-01T07:40:28;8.00;;;5.30;;
62574;SDS011;53112;45.602;11.904;2023-04-01T07:55:05;8.65;;;6.03;;
62574;SDS011;53112;45.602;11.904;2023-04-01T07:57:34;9.95;;;6.25;;
62574;SDS011;53112;45.602;11.904;2023-04-01T08:05:25;8.75;;;6.25;;
62574;SDS011;53112;45.602;11.904;2023-04-01T08:21:39;8.57;;;6.15;;
62574;SDS011;53112;45.602;11.904;2023-04-01T08:26:57;10.00;;;6.57;;
62574;SDS011;53112;45.602;11.904;2023-04-01T08:29:32;9.88;;;7.07;;
62574;SDS011;53112;45.602;11.904;2023-04-01T08:32:12;10.95;;;6.78;;
62574;SDS011;53112;45.602;11.904;2023-04-01T08:34:44;11.07;;;6.82;;
62574;SDS011;53112;45.602;11.904;2023-04-01T08:37:24;9.85;;;6.47;;
62574;SDS011;53112;45.602;11.904;2023-04-01T08:39:58;11.95;;;7.22;;
62574;SDS011;53112;45.602;11.904;2023-04-01T08:43:09;11.82;;;7.40;;
62574;SDS011;53112;45.602;11.904;2023-04-01T08:59:27;10.27;;;7.05;;
62574;SDS011;53112;45.602;11.904;2023-04-01T09:08:08;11.85;;;7.53;;
62574;SDS011;53112;45.602;11.904;2023-04-01T09:16:20;10.80;;;7.20;;
62574;SDS011;53112;45.602;11.904;2023-04-01T09:21:36;11.75;;;7.40;;
62574;SDS011;53112;45.602;11.904;2023-04-01T09:27:33;13.65;;;7.75;;
62574;SDS011;53112;45.602;11.904;2023-04-01T09:35:45;10.52;;;7.15;;
62574;SDS011;53112;45.602;11.904;2023-04-01T09:38:22;10.43;;;6.75;;
62574;SDS011;53112;45.602;11.904;2023-04-01T09:52:26;9.57;;;6.32;;
62574;SDS011;53112;45.602;11.904;2023-04-01T09:55:28;11.10;;;6.70;;
62574;SDS011;53112;45.602;11.904;2023-04-01T09:58:32;9.48;;;6.30;;
62574;SDS011;53112;45.602;11.904;2023-04-01T10:26:12;8.65;;;5.55;;
62574;SDS011;53112;45.602;11.904;2023-04-01T10:57:38;9.13;;;4.68;;
62574;SDS011;53112;45.602;11.904;2023-04-01T11:00:18;8.55;;;5.97;;
62574;SDS011;53112;45.602;11.904;2023-04-01T11:25:35;7.78;;;5.47;;
62574;SDS011;53112;45.602;11.904;2023-04-01T11:28:35;7.82;;;4.85;;
62574;SDS011;53112;45.602;11.904;2023-04-01T11:31:34;8.00;;;4.68;;
62574;SDS011;53112;45.602;11.904;2023-04-01T11:34:20;6.70;;;4.93;;
62574;SDS011;53112;45.602;11.904;2023-04-01T11:50:42;8.52;;;5.20;;
62574;SDS011;53112;45.602;11.904;2023-04-01T12:05:12;7.75;;;5.88;;
62574;SDS011;53112;45.602;11.904;2023-04-01T12:24:41;7.65;;;5.47;;
62574;SDS011;53112;45.602;11.904;2023-04-01T12:32:40;7.25;;;5.03;;
62574;SDS011;53112;45.602;11.904;2023-04-01T12:35:14;7.50;;;4.70;;
62574;SDS011;53112;45.602;11.904;2023-04-01T12:46:03;7.82;;;5.30;;
62574;SDS011;53112;45.602;11.904;2023-04-01T12:51:29;6.97;;;4.97;;
62574;SDS011;53112;45.602;11.904;2023-04-01T13:05:01;6.95;;;4.90;;
62574;SDS011;53112;45.602;11.904;2023-04-01T13:10:58;6.45;;;4.68;;
62574;SDS011;53112;45.602;11.904;2023-04-01T13:42:57;5.97;;;4.30;;
62574;SDS011;53112;45.602;11.904;2023-04-01T13:51:14;5.60;;;4.07;;
62574;SDS011;53112;45.602;11.904;2023-04-01T14:04:42;6.68;;;4.40;;
62574;SDS011;53112;45.602;11.904;2023-04-01T14:15:22;6.10;;;4.07;;
62574;SDS011;53112;45.602;11.904;2023-04-01T14:18:14;5.30;;;3.90;;
62574;SDS011;53112;45.602;11.904;2023-04-01T14:26:28;7.15;;;4.35;;
62574;SDS011;53112;45.602;11.904;2023-04-01T14:34:46;6.50;;;4.28;;
62574;SDS011;53112;45.602;11.904;2023-04-01T14:48:39;5.57;;;3.90;;
62574;SDS011;53112;45.602;11.904;2023-04-01T14:56:37;6.72;;;4.20;;
62574;SDS011;53112;45.602;11.904;2023-04-01T14:59:09;6.38;;;4.40;;
62574;SDS011;53112;45.602;11.904;2023-04-01T15:12:54;6.18;;;4.00;;
62574;SDS011;53112;45.602;11.904;2023-04-01T15:27:32;5.80;;;4.15;;
62574;SDS011;53112;45.602;11.904;2023-04-01T15:33:01;6.00;;;4.18;;
62574;SDS011;53112;45.602;11.904;2023-04-01T15:43:45;6.03;;;4.35;;
62574;SDS011;53112;45.602;11.904;2023-04-01T15:51:45;6.88;;;4.97;;
62574;SDS011;53112;45.602;11.904;2023-04-01T15:54:47;6.95;;;4.80;;
62574;SDS011;53112;45.602;11.904;2023-04-01T15:57:45;6.53;;;4.20;;
62574;SDS011;53112;45.602;11.904;2023-04-01T16:03:13;7.47;;;4.97;;
62574;SDS011;53112;45.602;11.904;2023-04-01T16:06:00;9.05;;;4.80;;
62574;SDS011;53112;45.602;11.904;2023-04-01T16:17:03;7.00;;;5.10;;
62574;SDS011;53112;45.602;11.904;2023-04-01T16:19:41;6.75;;;4.43;;
62574;SDS011;53112;45.602;11.904;2023-04-01T16:22:18;6.80;;;4.90;;
62574;SDS011;53112;45.602;11.904;2023-04-01T16:28:40;7.22;;;5.18;;
62574;SDS011;53112;45.602;11.904;2023-04-01T16:31:15;7.45;;;4.93;;
62574;SDS011;53112;45.602;11.904;2023-04-01T16:36:42;6.70;;;4.65;;
62574;SDS011;53112;45.602;11.904;2023-04-01T16:42:13;6.80;;;4.82;;
62574;SDS011;53112;45.602;11.904;2023-04-01T16:44:58;6.90;;;4.85;;
62574;SDS011;53112;45.602;11.904;2023-04-01T16:47:45;6.75;;;4.85;;
62574;SDS011;53112;45.602;11.904;2023-04-01T16:50:24;6.43;;;4.40;;
62574;SDS011;53112;45.602;11.904;2023-04-01T16:58:35;5.93;;;4.32;;
62574;SDS011;53112;45.602;11.904;2023-04-01T17:01:49;6.35;;;4.32;;
62574;SDS011;53112;45.602;11.904;2023-04-01T17:04:14;7.93;;;4.70;;
62574;SDS011;53112;45.602;11.904;2023-04-01T17:06:59;6.65;;;4.30;;
62574;SDS011;53112;45.602;11.904;2023-04-01T17:15:10;6.97;;;4.68;;
62574;SDS011;53112;45.602;11.904;2023-04-01T17:18:05;7.18;;;4.65;;
62574;SDS011;53112;45.602;11.904;2023-04-01T17:20:35;8.15;;;5.20;;
62574;SDS011;53112;45.602;11.904;2023-04-01T17:23:16;7.35;;;4.32;;
62574;SDS011;53112;45.602;11.904;2023-04-01T17:34:03;7.93;;;5.47;;
62574;SDS011;53112;45.602;11.904;2023-04-01T17:39:47;9.40;;;5.22;;
62574;SDS011;53112;45.602;11.904;2023-04-01T17:42:20;9.57;;;5.53;;
62574;SDS011;53112;45.602;11.904;2023-04-01T17:53:22;8.18;;;5.68;;
62574;SDS011;53112;45.602;11.904;2023-04-01T17:56:12;8.57;;;5.78;;
62574;SDS011;53112;45.602;11.904;2023-04-01T17:59:03;9.13;;;5.90;;
62574;SDS011;53112;45.602;11.904;2023-04-01T18:01:41;9.90;;;5.40;;
62574;SDS011;53112;45.602;11.904;2023-04-01T18:04:23;10.90;;;5.88;;
62574;SDS011;53112;45.602;11.904;2023-04-01T18:20:30;9.20;;;5.93;;
62574;SDS011;53112;45.602;11.904;2023-04-01T18:23:04;8.68;;;5.78;;
62574;SDS011;53112;45.602;11.904;2023-04-01T18:25:49;11.18;;;6.22;;
62574;SDS011;53112;45.602;11.904;2023-04-01T18:28:21;9.85;;;6.15;;
62574;SDS011;53112;45.602;11.904;2023-04-01T18:36:44;10.30;;;6.45;;
62574;SDS011;53112;45.602;11.904;2023-04-01T18:50:36;10.70;;;6.35;;
62574;SDS011;53112;45.602;11.904;2023-04-01T18:58:46;9.95;;;5.97;;
62574;SDS011;53112;45.602;11.904;2023-04-01T19:04:19;8.95;;;5.80;;
62574;SDS011;53112;45.602;11.904;2023-04-01T19:07:00;9.57;;;5.45;;
62574;SDS011;53112;45.602;11.904;2023-04-01T19:09:46;9.35;;;5.63;;
62574;SDS011;53112;45.602;11.904;2023-04-01T19:12:19;8.82;;;5.30;;
62574;SDS011;53112;45.602;11.904;2023-04-01T19:23:00;7.88;;;4.60;;
62574;SDS011;53112;45.602;11.904;2023-04-01T19:36:47;7.32;;;4.93;;
62574;SDS011;53112;45.602;11.904;2023-04-01T19:39:26;7.47;;;4.93;;
62574;SDS011;53112;45.602;11.904;2023-04-01T19:48:26;8.73;;;4.85;;
62574;SDS011;53112;45.602;11.904;2023-04-01T19:50:47;8.23;;;4.60;;
62574;SDS011;53112;45.602;11.904;2023-04-01T19:54:09;7.82;;;5.00;;
62574;SDS011;53112;45.602;11.904;2023-04-01T19:56:27;8.15;;;4.65;;
62574;SDS011;53112;45.602;11.904;2023-04-01T20:04:48;6.60;;;4.40;;
62574;SDS011;53112;45.602;11.904;2023-04-01T20:07:38;8.65;;;4.50;;
62574;SDS011;53112;45.602;11.904;2023-04-01T20:10:09;7.03;;;4.47;;
62574;SDS011;53112;45.602;11.904;2023-04-01T20:18:02;7.80;;;4.47;;
62574;SDS011;53112;45.602;11.904;2023-04-01T20:20:57;7.38;;;4.50;;
62574;SDS011;53112;45.602;11.904;2023-04-01T20:23:56;7.43;;;4.50;;
62574;SDS011;53112;45.602;11.904;2023-04-01T20:26:37;9.18;;;4.70;;
62574;SDS011;53112;45.602;11.904;2023-04-01T20:29:22;6.88;;;4.28;;
62574;SDS011;53112;45.602;11.904;2023-04-01T20:40:41;7.13;;;4.40;;
62574;SDS011;53112;45.602;11.904;2023-04-01T20:43:20;6.82;;;4.40;;
62574;SDS011;53112;45.602;11.904;2023-04-01T20:51:30;6.15;;;4.05;;
62574;SDS011;53112;45.602;11.904;2023-04-01T20:54:24;6.55;;;4.28;;
62574;SDS011;53112;45.602;11.904;2023-04-01T20:59:25;7.65;;;4.20;;
62574;SDS011;53112;45.602;11.904;2023-04-01T21:04:30;6.85;;;4.38;;
62574;SDS011;53112;45.602;11.904;2023-04-01T21:12:48;7.07;;;4.60;;
62574;SDS011;53112;45.602;11.904;2023-04-01T21:18:04;8.60;;;4.63;;
62574;SDS011;53112;45.602;11.904;2023-04-01T21:23:43;6.70;;;4.63;;
62574;SDS011;53112;45.602;11.904;2023-04-01T21:26:51;6.38;;;4.63;;
62574;SDS011;53112;45.602;11.904;2023-04-01T21:59:04;8.07;;;5.22;;
62574;SDS011;53112;45.602;11.904;2023-04-01T22:06:38;7.40;;;5.20;;
62574;SDS011;53112;45.602;11.904;2023-04-01T22:09:27;10.30;;;5.30;;
62574;SDS011;53112;45.602;11.904;2023-04-01T22:17:58;7.90;;;4.72;;
62574;SDS011;53112;45.602;11.904;2023-04-01T22:23:50;6.78;;;4.53;;
62574;SDS011;53112;45.602;11.904;2023-04-01T22:29:07;7.40;;;4.07;;
62574;SDS011;53112;45.602;11.904;2023-04-01T22:40:47;6.20;;;4.20;;
62574;SDS011;53112;45.602;11.904;2023-04-01T22:43:37;6.85;;;4.10;;
62574;SDS011;53112;45.602;11.904;2023-04-01T22:49:17;5.93;;;4.10;;
62574;SDS011;53112;45.602;11.904;2023-04-01T22:52:20;5.82;;;3.90;;
62574;SDS011;53112;45.602;11.904;2023-04-01T22:55:00;5.53;;;4.07;;
62574;SDS011;53112;45.602;11.904;2023-04-01T22:57:52;6.00;;;3.90;;
62574;SDS011;53112;45.602;11.904;2023-04-01T23:03:05;6.43;;;4.28;;
62574;SDS011;53112;45.602;11.904;2023-04-01T23:05:46;5.82;;;4.10;;
62574;SDS011;53112;45.602;11.904;2023-04-01T23:11:15;7.57;;;4.40;;
62574;SDS011;53112;45.602;11.904;2023-04-01T23:13:48;6.22;;;4.25;;
62574;SDS011;53112;45.602;11.904;2023-04-01T23:16:24;7.07;;;4.45;;
62574;SDS011;53112;45.602;11.904;2023-04-01T23:19:04;7.43;;;4.38;;
62574;SDS011;53112;45.602;11.904;2023-04-01T23:24:46;5.43;;;3.88;;
62574;SDS011;53112;45.602;11.904;2023-04-01T23:27:50;6.93;;;4.20;;
62574;SDS011;53112;45.602;11.904;2023-04-01T23:36:09;8.07;;;4.10;;
62574;SDS011;53112;45.602;11.904;2023-04-01T23:38:38;5.28;;;4.03;;
62574;SDS011;53112;45.602;11.904;2023-04-01T23:41:07;6.95;;;4.03;;
62574;SDS011;53112;45.602;11.904;2023-04-01T23:43:43;6.18;;;4.20;;
62574;SDS011;53112;45.602;11.904;2023-04-01T23:46:10;6.65;;;4.30;;
62574;SDS011;53112;45.602;11.904;2023-04-01T23:48:38;6.72;;;4.35;;
62574;SDS011;53112;45.602;11.904;2023-04-01T23:51:12;6.75;;;4.35;;
62574;SDS011;53112;45.602;11.904;2023-04-01T23:53:57;7.00;;;4.70;;
62574;SDS011;53112;45.602;11.904;2023-04-01T23:56:34;6.97;;;4.35;;
62574;SDS011;53112;45.602;11.904;2023-04-01T23:59:04;6.82;;;4.78;;
